createdAt,value
2022-12-01T00:00:19.519Z,101515.46
2022-12-01T00:03:07.089Z,101517.30
2022-12-01T00:05:34.282Z,101510.03
2022-12-01T00:08:01.444Z,101519.23
2022-12-01T00:10:29.087Z,101522.07
2022-12-01T00:12:57.443Z,101524.82
2022-12-01T00:15:25.093Z,101528.39
2022-12-01T00:17:52.406Z,101531.77
2022-12-01T00:20:20.011Z,101531.32
2022-12-01T00:22:48.525Z,101526.23
2022-12-01T00:25:16.950Z,101532.73
2022-12-01T00:27:44.735Z,101533.56
2022-12-01T00:30:14.800Z,101527.33
2022-12-01T00:32:42.007Z,101527.40
2022-12-01T00:35:11.216Z,101526.88
2022-12-01T00:37:38.666Z,101524.73
2022-12-01T00:40:08.226Z,101526.73
2022-12-01T00:42:35.421Z,101518.77
2022-12-01T00:45:04.225Z,101522.48
2022-12-01T00:47:32.011Z,101519.83
2022-12-01T00:49:59.123Z,101518.30
2022-12-01T00:52:26.292Z,101517.65
2022-12-01T00:54:53.444Z,101516.46
2022-12-01T00:57:20.883Z,101509.58
2022-12-01T00:59:49.927Z,101510.94
2022-12-01T01:02:17.652Z,101507.23
2022-12-01T01:04:45.716Z,101506.46
2022-12-01T01:07:13.065Z,101503.11
2022-12-01T01:09:40.353Z,101507.17
2022-12-01T01:12:07.776Z,101502.52
2022-12-01T01:14:35.304Z,101500.61
2022-12-01T01:17:02.498Z,101496.71
2022-12-01T01:19:29.741Z,101496.27
2022-12-01T01:21:56.831Z,101496.51
2022-12-01T01:24:23.872Z,101492.77
2022-12-01T01:26:51.016Z,101497.02
2022-12-01T01:29:18.166Z,101494.52
2022-12-01T01:31:45.321Z,101491.47
2022-12-01T01:34:12.640Z,101489.63
2022-12-01T01:36:40.610Z,101493.08
2022-12-01T01:39:08.308Z,101494.98
2022-12-01T01:41:35.484Z,101492.71
2022-12-01T01:44:04.849Z,101496.30
2022-12-01T01:46:33.438Z,101499.48
2022-12-01T01:49:03.776Z,101499.68
2022-12-01T01:51:34.979Z,101499.64
2022-12-01T01:54:07.352Z,101496.04
2022-12-01T01:56:36.680Z,101496.41
2022-12-01T01:59:04.724Z,101492.81
2022-12-01T02:01:32.520Z,101495.46
2022-12-01T02:04:01.380Z,101496.89
2022-12-01T02:06:28.464Z,101494.79
2022-12-01T02:08:56.398Z,101496.97
2022-12-01T02:12:03.485Z,101497.75
2022-12-01T02:14:47.156Z,101498.33
2022-12-01T02:17:29.009Z,101500.18
2022-12-01T02:20:21.839Z,101499.34
2022-12-01T02:23:04.584Z,101495.38
2022-12-01T02:25:46.921Z,101494.65
2022-12-01T02:28:37.286Z,101492.91
2022-12-01T02:31:12.669Z,101493.06
2022-12-01T02:33:45.830Z,101491.83
2022-12-01T02:36:18.887Z,101490.23
2022-12-01T02:38:53.676Z,101489.18
2022-12-01T02:41:29.695Z,101484.52
2022-12-01T02:44:04.529Z,101484.32
2022-12-01T02:46:35.693Z,101485.60
2022-12-01T02:49:09.432Z,101480.96
2022-12-01T02:51:39.062Z,101484.23
2022-12-01T02:54:08.695Z,101486.15
2022-12-01T02:56:35.872Z,101484.98
2022-12-01T02:59:03.408Z,101482.11
2022-12-01T03:01:42.734Z,101485.19
2022-12-01T03:04:30.063Z,101481.61
2022-12-01T03:07:00.018Z,101484.10
2022-12-01T03:09:39.595Z,101482.50
2022-12-01T03:12:16.666Z,101477.29
2022-12-01T03:14:52.326Z,101474.13
2022-12-01T03:17:26.268Z,101475.21
2022-12-01T03:19:59.987Z,101477.50
2022-12-01T03:22:33.496Z,101476.48
2022-12-01T03:25:05.531Z,101473.84
2022-12-01T03:27:37.297Z,101474.67
2022-12-01T03:30:10.376Z,101476.21
2022-12-01T03:32:46.765Z,101474.66
2022-12-01T03:35:18.713Z,101469.53
2022-12-01T03:37:50.915Z,101468.34
2022-12-01T03:40:25.197Z,101471.46
2022-12-01T03:42:57.388Z,101471.37
2022-12-01T03:45:29.430Z,101470.18
2022-12-01T03:47:56.899Z,101472.29
2022-12-01T03:50:28.031Z,101470.85
2022-12-01T03:53:06.899Z,101471.39
2022-12-01T03:55:38.917Z,101468.70
2022-12-01T03:58:10.686Z,101467.41
2022-12-01T04:00:39.568Z,101469.69
2022-12-01T04:03:07.801Z,101469.23
2022-12-01T04:05:36.329Z,101467.22
2022-12-01T04:08:04.382Z,101468.64
2022-12-01T04:10:33.119Z,101467.47
2022-12-01T04:13:01.064Z,101470.23
2022-12-01T04:15:29.101Z,101471.61
2022-12-01T04:17:56.801Z,101470.25
2022-12-01T04:20:24.310Z,101472.30
2022-12-01T04:22:51.906Z,101469.05
2022-12-01T04:25:19.345Z,101468.84
2022-12-01T04:27:46.619Z,101464.66
2022-12-01T04:30:15.060Z,101466.52
2022-12-01T04:32:44.455Z,101469.23
2022-12-01T04:35:14.221Z,101470.23
2022-12-01T04:37:41.875Z,101466.30
2022-12-01T04:40:11.058Z,101470.56
2022-12-01T04:42:38.325Z,101471.24
2022-12-01T04:45:08.301Z,101474.17
2022-12-01T04:47:35.556Z,101471.27
2022-12-01T04:50:02.648Z,101472.48
2022-12-01T04:52:34.980Z,101474.42
2022-12-01T04:55:03.439Z,101471.89
2022-12-01T04:57:30.957Z,101480.17
2022-12-01T04:59:58.017Z,101483.80
2022-12-01T05:02:25.129Z,101482.07
2022-12-01T05:04:52.712Z,101482.80
2022-12-01T05:07:20.188Z,101489.16
2022-12-01T05:09:47.732Z,101487.59
2022-12-01T05:12:17.298Z,101488.96
2022-12-01T05:14:44.488Z,101486.56
2022-12-01T05:17:11.565Z,101488.13
2022-12-01T05:19:56.503Z,101483.53
2022-12-01T05:22:56.764Z,101485.44
2022-12-01T05:25:12.315Z,101486.47
2022-12-01T05:27:39.397Z,101486.27
2022-12-01T05:30:08.413Z,101485.55
2022-12-01T05:32:35.988Z,101483.63
2022-12-01T05:35:03.059Z,101484.77
2022-12-01T05:37:34.740Z,101487.44
2022-12-01T05:40:01.969Z,101488.11
2022-12-01T05:42:29.526Z,101485.89
2022-12-01T05:44:56.897Z,101486.28
2022-12-01T05:47:24.066Z,101483.20
2022-12-01T05:49:52.006Z,101485.81
2022-12-01T05:52:19.398Z,101486.17
2022-12-01T05:54:46.793Z,101486.08
2022-12-01T05:57:13.918Z,101485.67
2022-12-01T05:59:41.583Z,101487.46
2022-12-01T06:02:08.926Z,101491.62
2022-12-01T06:04:36.351Z,101488.58
2022-12-01T06:07:03.590Z,101488.98
2022-12-01T06:09:30.752Z,101487.34
2022-12-01T06:11:57.994Z,101487.86
2022-12-01T06:14:25.064Z,101491.13
2022-12-01T06:16:52.395Z,101491.19
2022-12-01T06:19:19.548Z,101487.96
2022-12-01T06:21:46.830Z,101489.04
2022-12-01T06:24:14.668Z,101490.46
2022-12-01T06:26:42.026Z,101490.19
2022-12-01T06:29:10.874Z,101487.17
2022-12-01T06:31:38.512Z,101482.94
2022-12-01T06:34:05.827Z,101485.91
2022-12-01T06:36:33.151Z,101483.71
2022-12-01T06:39:00.435Z,101479.65
2022-12-01T06:41:27.585Z,101482.57
2022-12-01T06:43:54.919Z,101479.17
2022-12-01T06:46:22.041Z,101480.39
2022-12-01T06:48:51.871Z,101479.73
2022-12-01T06:51:19.160Z,101480.30
2022-12-01T06:53:46.525Z,101478.50
2022-12-01T06:56:14.177Z,101478.17
2022-12-01T06:58:41.778Z,101480.03
2022-12-01T07:01:13.743Z,101475.39
2022-12-01T07:03:41.155Z,101484.65
2022-12-01T07:06:09.061Z,101484.73
2022-12-01T07:08:36.478Z,101484.48
2022-12-01T07:11:05.545Z,101487.35
2022-12-01T07:13:34.021Z,101488.14
2022-12-01T07:16:01.644Z,101484.92
2022-12-01T07:18:28.768Z,101484.84
2022-12-01T07:20:59.911Z,101487.31
2022-12-01T07:23:27.372Z,101488.06
2022-12-01T07:26:02.515Z,101487.67
2022-12-01T07:28:30.140Z,101489.05
2022-12-01T07:31:01.621Z,101487.20
2022-12-01T07:33:28.719Z,101490.39
2022-12-01T07:35:57.543Z,101491.48
2022-12-01T07:38:24.810Z,101493.59
2022-12-01T07:40:52.063Z,101491.22
2022-12-01T07:43:19.211Z,101492.81
2022-12-01T07:45:46.731Z,101490.73
2022-12-01T07:48:13.964Z,101486.61
2022-12-01T07:50:41.390Z,101494.15
2022-12-01T07:53:08.991Z,101496.05
2022-12-01T07:55:36.404Z,101494.20
2022-12-01T07:58:04.985Z,101493.84
2022-12-01T08:00:32.137Z,101495.90
2022-12-01T08:02:59.545Z,101493.73
2022-12-01T08:05:26.941Z,101493.23
2022-12-01T08:07:56.377Z,101491.88
2022-12-01T08:10:23.812Z,101490.90
2022-12-01T08:12:51.026Z,101484.27
2022-12-01T08:15:18.626Z,101487.91
2022-12-01T08:17:46.197Z,101485.07
2022-12-01T08:20:18.484Z,101482.64
2022-12-01T08:22:49.704Z,101482.93
2022-12-01T08:25:17.212Z,101487.84
2022-12-01T08:27:44.507Z,101487.07
2022-12-01T08:30:14.236Z,101487.63
2022-12-01T08:32:41.699Z,101490.38
2022-12-01T08:35:10.633Z,101486.77
2022-12-01T08:37:37.817Z,101491.55
2022-12-01T08:40:16.683Z,101494.27
2022-12-01T08:42:43.995Z,101492.69
2022-12-01T08:45:12.791Z,101497.45
2022-12-01T08:47:40.137Z,101497.06
2022-12-01T08:50:09.273Z,101495.50
2022-12-01T08:52:36.902Z,101497.72
2022-12-01T08:55:04.211Z,101496.70
2022-12-01T08:57:33.546Z,101502.62
2022-12-01T09:00:00.774Z,101505.43
2022-12-01T09:02:28.190Z,101510.11
2022-12-01T09:04:55.731Z,101511.64
2022-12-01T09:07:26.554Z,101510.62
2022-12-01T09:09:54.176Z,101504.63
2022-12-01T09:12:21.351Z,101502.55
2022-12-01T09:14:49.855Z,101504.12
2022-12-01T09:17:18.433Z,101508.42
2022-12-01T09:19:46.288Z,101502.95
2022-12-01T09:22:14.632Z,101505.73
2022-12-01T09:24:41.829Z,101503.20
2022-12-01T09:27:10.824Z,101499.56
2022-12-01T09:29:39.647Z,101499.73
2022-12-01T09:32:06.760Z,101495.82
2022-12-01T09:34:33.915Z,101494.31
2022-12-01T09:37:01.390Z,101492.45
2022-12-01T09:39:29.962Z,101494.37
2022-12-01T09:42:08.459Z,101491.63
2022-12-01T09:44:44.025Z,101494.20
2022-12-01T09:47:19.903Z,101493.33
2022-12-01T09:49:55.567Z,101491.92
2022-12-01T09:52:24.255Z,101490.04
2022-12-01T09:54:51.931Z,101488.44
2022-12-01T09:57:27.212Z,101491.70
2022-12-01T09:59:56.103Z,101487.48
2022-12-01T10:02:38.986Z,101485.48
2022-12-01T10:05:14.413Z,101483.30
2022-12-01T10:07:45.995Z,101483.19
2022-12-01T10:10:17.984Z,101480.36
2022-12-01T10:12:48.092Z,101480.40
2022-12-01T10:15:28.693Z,101477.88
2022-12-01T10:18:06.707Z,101479.81
2022-12-01T10:20:41.504Z,101479.62
2022-12-01T10:23:24.983Z,101477.14
2022-12-01T10:25:58.899Z,101472.98
2022-12-01T10:29:10.434Z,101474.66
2022-12-01T10:31:43.648Z,101472.24
2022-12-01T10:34:16.104Z,101466.93
2022-12-01T10:36:43.394Z,101462.37
2022-12-01T10:39:19.843Z,101460.39
2022-12-01T10:41:49.025Z,101458.36
2022-12-01T10:44:18.603Z,101456.31
2022-12-01T10:46:49.780Z,101456.29
2022-12-01T10:49:18.968Z,101454.52
2022-12-01T10:51:57.241Z,101448.27
2022-12-01T10:54:32.234Z,101447.17
2022-12-01T10:57:00.378Z,101441.14
2022-12-01T10:59:36.151Z,101448.84
2022-12-01T11:02:06.704Z,101445.55
2022-12-01T11:04:45.017Z,101439.15
2022-12-01T11:07:20.513Z,101437.89
2022-12-01T11:09:50.061Z,101438.13
2022-12-01T11:12:20.595Z,101435.68
2022-12-01T11:14:51.363Z,101434.66
2022-12-01T11:17:27.213Z,101431.72
2022-12-01T11:19:54.888Z,101427.60
2022-12-01T11:22:26.098Z,101432.91
2022-12-01T11:25:17.146Z,101431.71
2022-12-01T11:27:51.905Z,101430.88
2022-12-01T11:30:25.233Z,101429.00
2022-12-01T11:32:57.260Z,101432.59
2022-12-01T11:35:27.328Z,101431.22
2022-12-01T11:40:53.124Z,101427.80
2022-12-01T11:43:28.465Z,101427.98
2022-12-01T11:45:57.912Z,101428.47
2022-12-01T11:48:29.319Z,101430.29
2022-12-01T11:51:15.824Z,101429.20
2022-12-01T11:53:44.953Z,101432.03
2022-12-01T11:56:32.859Z,101432.01
2022-12-01T11:59:03.815Z,101429.61
2022-12-01T12:01:41.705Z,101427.73
2022-12-01T12:04:24.285Z,101423.38
2022-12-01T12:07:00.945Z,101422.16
2022-12-01T12:09:45.059Z,101421.30
2022-12-01T12:12:28.871Z,101418.63
2022-12-01T12:15:06.308Z,101419.02
2022-12-01T12:17:59.801Z,101419.54
2022-12-01T12:20:46.890Z,101420.34
2022-12-01T12:23:30.670Z,101419.29
2022-12-01T12:26:07.249Z,101420.50
2022-12-01T12:28:52.309Z,101418.55
2022-12-01T12:31:28.164Z,101421.13
2022-12-01T12:34:08.443Z,101417.87
2022-12-01T12:36:45.122Z,101416.59
2022-12-01T12:39:18.760Z,101417.36
2022-12-01T12:41:49.885Z,101416.90
2022-12-01T12:44:55.423Z,101413.00
2022-12-01T12:47:36.896Z,101413.86
2022-12-01T12:50:18.918Z,101409.25
2022-12-01T12:52:49.445Z,101413.86
2022-12-01T12:55:22.440Z,101416.52
2022-12-01T12:57:54.076Z,101417.52
2022-12-01T13:00:25.828Z,101420.27
2022-12-01T13:02:57.462Z,101415.86
2022-12-01T13:05:31.195Z,101409.60
2022-12-01T13:08:03.932Z,101410.59
2022-12-01T13:10:38.283Z,101414.27
2022-12-01T13:13:19.470Z,101414.21
2022-12-01T13:15:49.029Z,101411.34
2022-12-01T13:18:26.574Z,101409.66
2022-12-01T13:20:55.536Z,101407.25
2022-12-01T13:23:25.759Z,101404.56
2022-12-01T13:25:57.336Z,101405.65
2022-12-01T13:28:28.697Z,101401.17
2022-12-01T13:31:05.644Z,101398.48
2022-12-01T13:33:35.547Z,101395.00
2022-12-01T13:36:38.578Z,101395.77
2022-12-01T13:39:01.131Z,101394.27
2022-12-01T13:41:33.693Z,101398.88
2022-12-01T13:44:08.561Z,101401.15
2022-12-01T13:46:54.430Z,101403.21
2022-12-01T13:49:46.347Z,101397.70
2022-12-01T13:52:49.881Z,101401.80
2022-12-01T13:55:34.520Z,101406.84
2022-12-01T13:58:26.348Z,101401.48
2022-12-01T14:00:54.355Z,101402.50
2022-12-01T14:03:57.294Z,101405.84
2022-12-01T14:06:29.879Z,101411.80
2022-12-01T14:09:02.779Z,101411.91
2022-12-01T14:11:32.262Z,101412.85
2022-12-01T14:14:04.641Z,101412.47
2022-12-01T14:16:49.140Z,101416.05
2022-12-01T14:19:31.809Z,101420.25
2022-12-01T14:22:00.289Z,101421.95
2022-12-01T14:24:30.207Z,101419.85
2022-12-01T14:26:57.660Z,101420.64
2022-12-01T14:29:43.325Z,101419.50
2022-12-01T14:32:27.060Z,101425.14
2022-12-01T14:35:00.892Z,101421.02
2022-12-01T14:37:35.440Z,101418.12
2022-12-01T14:40:08.713Z,101417.92
2022-12-01T14:42:57.300Z,101418.46
2022-12-01T14:45:27.935Z,101422.36
2022-12-01T14:48:02.090Z,101420.86
2022-12-01T14:50:36.227Z,101423.11
2022-12-01T14:53:10.261Z,101416.20
2022-12-01T14:55:41.996Z,101414.20
2022-12-01T14:58:15.349Z,101408.91
2022-12-01T15:00:56.188Z,101410.77
2022-12-01T15:03:28.925Z,101412.64
2022-12-01T15:05:59.810Z,101411.25
2022-12-01T15:09:04.270Z,101410.00
2022-12-01T15:11:26.088Z,101404.67
2022-12-01T15:13:55.653Z,101404.81
2022-12-01T15:16:25.210Z,101402.84
2022-12-01T15:18:53.120Z,101400.35
2022-12-01T15:21:23.454Z,101399.40
2022-12-01T15:23:59.236Z,101401.20
2022-12-01T15:26:27.914Z,101398.45
2022-12-01T15:29:07.900Z,101400.30
2022-12-01T15:31:36.353Z,101398.83
2022-12-01T15:34:04.730Z,101399.91
2022-12-01T15:36:32.078Z,101399.59
2022-12-01T15:39:06.803Z,101400.70
2022-12-01T15:41:35.713Z,101398.34
2022-12-01T15:44:03.781Z,101398.31
2022-12-01T15:46:34.343Z,101401.75
2022-12-01T15:49:17.807Z,101403.52
2022-12-01T15:51:45.397Z,101402.07
2022-12-01T15:54:21.943Z,101404.23
2022-12-01T15:56:51.500Z,101410.95
2022-12-01T15:59:28.660Z,101416.87
2022-12-01T16:01:56.858Z,101419.69
2022-12-01T16:04:27.318Z,101419.73
2022-12-01T16:07:00.925Z,101420.55
2022-12-01T16:09:31.158Z,101423.17
2022-12-01T16:12:24.150Z,101424.14
2022-12-01T16:15:19.780Z,101425.81
2022-12-01T16:17:49.290Z,101425.11
2022-12-01T16:20:27.148Z,101428.46
2022-12-01T16:22:59.070Z,101427.13
2022-12-01T16:25:33.733Z,101424.98
2022-12-01T16:28:01.718Z,101422.65
2022-12-01T16:30:35.681Z,101427.52
2022-12-01T16:33:17.088Z,101429.38
2022-12-01T16:35:44.954Z,101431.84
2022-12-01T16:38:20.698Z,101437.63
2022-12-01T16:40:48.620Z,101434.54
2022-12-01T16:43:18.893Z,101440.97
2022-12-01T16:45:50.500Z,101437.34
2022-12-01T16:48:19.493Z,101432.33
2022-12-01T16:50:47.458Z,101433.21
2022-12-01T16:53:15.479Z,101430.52
2022-12-01T16:55:45.660Z,101430.94
2022-12-01T16:58:13.023Z,101433.20
2022-12-01T17:00:40.687Z,101428.50
2022-12-01T17:03:08.583Z,101429.34
2022-12-01T17:05:36.043Z,101430.76
2022-12-01T17:08:03.772Z,101428.50
2022-12-01T17:10:31.117Z,101429.11
2022-12-01T17:12:58.515Z,101425.17
2022-12-01T17:15:25.936Z,101423.58
2022-12-01T17:17:53.277Z,101425.98
2022-12-01T17:20:20.599Z,101425.45
2022-12-01T17:22:47.637Z,101424.80
2022-12-01T17:25:14.791Z,101424.50
2022-12-01T17:27:43.777Z,101425.16
2022-12-01T17:30:15.813Z,101427.46
2022-12-01T17:32:43.233Z,101427.55
2022-12-01T17:35:12.314Z,101424.70
2022-12-01T17:37:39.832Z,101424.65
2022-12-01T17:40:11.201Z,101428.23
2022-12-01T17:42:38.554Z,101428.64
2022-12-01T17:45:07.959Z,101433.15
2022-12-01T17:47:35.196Z,101436.67
2022-12-01T17:50:02.395Z,101431.97
2022-12-01T17:52:30.596Z,101431.86
2022-12-01T17:54:58.377Z,101429.19
2022-12-01T17:57:25.431Z,101426.64
2022-12-01T18:00:12.818Z,101426.70
2022-12-01T18:02:40.391Z,101423.25
2022-12-01T18:05:09.826Z,101425.05
2022-12-01T18:07:37.269Z,101427.38
2022-12-01T18:10:05.310Z,101421.95
2022-12-01T18:12:32.653Z,101424.77
2022-12-01T18:14:59.871Z,101422.78
2022-12-01T18:17:27.464Z,101420.65
2022-12-01T18:19:54.833Z,101417.33
2022-12-01T18:22:22.644Z,101416.64
2022-12-01T18:24:50.078Z,101417.49
2022-12-01T18:27:17.650Z,101416.15
2022-12-01T18:29:45.029Z,101422.23
2022-12-01T18:32:12.385Z,101420.15
2022-12-01T18:34:39.734Z,101417.97
2022-12-01T18:37:06.998Z,101416.79
2022-12-01T18:39:34.548Z,101423.27
2022-12-01T18:42:01.750Z,101421.66
2022-12-01T18:44:28.950Z,101426.84
2022-12-01T18:46:57.377Z,101424.69
2022-12-01T18:49:24.484Z,101425.48
2022-12-01T18:51:52.016Z,101424.48
2022-12-01T18:54:19.395Z,101421.09
2022-12-01T18:56:47.639Z,101422.98
2022-12-01T18:59:17.334Z,101420.86
2022-12-01T19:01:46.715Z,101422.23
2022-12-01T19:04:14.967Z,101418.35
2022-12-01T19:06:43.931Z,101417.34
2022-12-01T19:09:13.078Z,101421.50
2022-12-01T19:11:41.624Z,101423.59
2022-12-01T19:14:09.089Z,101429.59
2022-12-01T19:16:36.322Z,101427.77
2022-12-01T19:19:05.132Z,101427.84
2022-12-01T19:21:32.589Z,101427.38
2022-12-01T19:24:00.098Z,101428.32
2022-12-01T19:26:27.299Z,101425.78
2022-12-01T19:28:54.865Z,101427.10
2022-12-01T19:31:25.544Z,101431.52
2022-12-01T19:33:53.248Z,101423.13
2022-12-01T19:36:24.035Z,101421.87
2022-12-01T19:38:51.657Z,101420.09
2022-12-01T19:41:20.934Z,101419.05
2022-12-01T19:43:48.572Z,101418.98
2022-12-01T19:46:17.540Z,101424.52
2022-12-01T19:48:44.934Z,101423.98
2022-12-01T19:51:19.624Z,101422.75
2022-12-01T19:53:47.381Z,101422.09
2022-12-01T19:56:15.218Z,101420.30
2022-12-01T19:58:42.889Z,101417.97
2022-12-01T20:01:12.647Z,101420.32
2022-12-01T20:03:43.020Z,101418.98
2022-12-01T20:06:15.180Z,101418.94
2022-12-01T20:08:42.780Z,101419.59
2022-12-01T20:11:10.815Z,101419.94
2022-12-01T20:13:39.707Z,101419.73
2022-12-01T20:16:09.598Z,101417.02
2022-12-01T20:18:37.384Z,101418.89
2022-12-01T20:21:11.141Z,101422.17
2022-12-01T20:23:38.862Z,101426.80
2022-12-01T20:26:08.436Z,101426.65
2022-12-01T20:28:36.679Z,101423.83
2022-12-01T20:31:04.404Z,101426.02
2022-12-01T20:33:33.172Z,101431.61
2022-12-01T20:36:01.061Z,101431.25
2022-12-01T20:38:28.318Z,101428.66
2022-12-01T20:40:55.810Z,101430.54
2022-12-01T20:43:23.125Z,101426.91
2022-12-01T20:45:50.461Z,101424.70
2022-12-01T20:48:18.575Z,101427.23
2022-12-01T20:50:45.805Z,101427.79
2022-12-01T20:53:13.422Z,101432.33
2022-12-01T20:55:41.127Z,101426.50
2022-12-01T20:58:10.022Z,101427.74
2022-12-01T21:00:38.267Z,101429.87
2022-12-01T21:03:05.861Z,101427.98
2022-12-01T21:05:33.931Z,101430.92
2022-12-01T21:08:01.125Z,101423.64
2022-12-01T21:10:28.911Z,101426.45
2022-12-01T21:13:17.045Z,101424.71
2022-12-01T21:15:51.208Z,101421.48
2022-12-01T21:18:26.800Z,101418.55
2022-12-01T21:20:58.097Z,101421.92
2022-12-01T21:23:26.794Z,101422.92
2022-12-01T21:25:53.996Z,101423.05
2022-12-01T21:28:24.669Z,101426.36
2022-12-01T21:30:56.879Z,101430.00
2022-12-01T21:33:32.590Z,101425.30
2022-12-01T21:36:00.939Z,101421.50
2022-12-01T21:38:28.949Z,101417.16
2022-12-01T21:40:56.248Z,101413.38
2022-12-01T21:43:25.518Z,101413.31
2022-12-01T21:45:57.500Z,101414.52
2022-12-01T21:48:25.734Z,101417.32
2022-12-01T21:50:59.433Z,101417.25
2022-12-01T21:53:34.676Z,101420.31
2022-12-01T21:56:02.154Z,101414.39
2022-12-01T21:58:34.501Z,101408.24
2022-12-01T22:01:02.659Z,101416.59
2022-12-01T22:03:40.425Z,101412.42
2022-12-01T22:06:29.685Z,101412.00
2022-12-01T22:09:01.100Z,101410.10
2022-12-01T22:11:29.648Z,101407.41
2022-12-01T22:14:06.157Z,101413.06
2022-12-01T22:16:32.381Z,101410.17
2022-12-01T22:19:00.915Z,101408.40
2022-12-01T22:21:41.282Z,101404.42
2022-12-01T22:24:40.745Z,101409.56
2022-12-01T22:27:19.037Z,101406.42
2022-12-01T22:29:48.167Z,101403.64
2022-12-01T22:32:40.626Z,101400.39
2022-12-01T22:35:26.921Z,101398.23
2022-12-01T22:37:55.870Z,101393.05
2022-12-01T22:40:37.701Z,101395.00
2022-12-01T22:43:23.863Z,101394.70
2022-12-01T22:45:53.419Z,101395.80
2022-12-01T22:48:28.590Z,101394.70
2022-12-01T22:50:55.757Z,101401.21
2022-12-01T22:53:30.689Z,101394.83
2022-12-01T22:56:01.267Z,101391.43
2022-12-01T22:58:32.697Z,101391.79
2022-12-01T23:01:03.918Z,101394.32
2022-12-01T23:03:31.374Z,101390.84
2022-12-01T23:06:00.762Z,101392.23
2022-12-01T23:08:27.864Z,101392.48
2022-12-01T23:10:55.291Z,101389.13
2022-12-01T23:13:25.572Z,101383.86
2022-12-01T23:15:54.241Z,101380.63
2022-12-01T23:18:24.563Z,101381.68
2022-12-01T23:20:53.301Z,101382.70
2022-12-01T23:23:22.189Z,101380.62
2022-12-01T23:25:50.579Z,101383.67
2022-12-01T23:28:18.246Z,101383.35
2022-12-01T23:30:47.492Z,101378.19
2022-12-01T23:33:18.952Z,101381.90
2022-12-01T23:35:50.131Z,101382.33
2022-12-01T23:38:23.643Z,101382.79
2022-12-01T23:40:53.113Z,101377.20
2022-12-01T23:43:23.466Z,101379.55
2022-12-01T23:45:52.661Z,101376.66
2022-12-01T23:48:24.064Z,101378.55
2022-12-01T23:50:54.079Z,101379.14
2022-12-01T23:53:29.187Z,101375.41
2022-12-01T23:55:57.132Z,101374.52
2022-12-01T23:58:24.588Z,101377.81
